Time;durP1;ratioP1;P1;durP2;ratioP2;P2;SDS_P1;SDS_P2;PMS_P1;PMS_P2;Temp;Humidity;BMP_temperature;BMP_pressure;BME280_temperature;BME280_humidity;BME280_pressure;Samples;Min_cycle;Max_cycle;Signal;HPM_P1;HPM_P2
2023/04/04 00:02:20;;;;;;;1.60;1.27;;;0.00;99.90;;;;;;5060884;28;20229;-93
2023/04/04 00:04:47;;;;;;;2.90;1.80;;;0.00;99.90;;;;;;5064008;28;20197;-93
2023/04/04 00:07:17;;;;;;;2.33;1.73;;;0.00;99.90;;;;;;5076224;28;20268;-94
2023/04/04 00:09:46;;;;;;;2.08;1.42;;;0.00;99.90;;;;;;5076718;28;20195;-94
2023/04/04 00:12:13;;;;;;;2.20;1.80;;;-0.10;99.90;;;;;;5076241;28;20212;-92
2023/04/04 00:14:40;;;;;;;2.03;1.48;;;-0.10;99.90;;;;;;5076393;28;20248;-94
2023/04/04 00:17:08;;;;;;;1.55;1.45;;;-0.10;99.90;;;;;;5076416;28;20211;-92
2023/04/04 00:19:35;;;;;;;1.63;1.20;;;-0.10;99.90;;;;;;5077031;28;20205;-95
2023/04/04 00:22:02;;;;;;;4.10;1.58;;;-0.10;99.90;;;;;;5079887;28;20193;-93
2023/04/04 00:24:32;;;;;;;4.03;1.90;;;-0.10;99.90;;;;;;5079936;28;20208;-93
2023/04/04 00:27:01;;;;;;;2.00;1.73;;;-0.20;99.90;;;;;;5079765;28;20212;-93
2023/04/04 00:29:29;;;;;;;1.50;1.40;;;-0.20;99.90;;;;;;5079932;28;20201;-94
2023/04/04 00:31:58;;;;;;;2.72;1.50;;;-0.20;99.90;;;;;;5079674;28;20208;-94
2023/04/04 00:34:25;;;;;;;3.75;2.05;;;-0.20;99.90;;;;;;5079608;28;20272;-93
2023/04/04 00:36:53;;;;;;;1.70;1.60;;;-0.20;99.90;;;;;;5079385;28;20192;-94
2023/04/04 00:39:22;;;;;;;2.58;2.33;;;-0.30;99.90;;;;;;5079689;28;20189;-93
2023/04/04 00:41:52;;;;;;;3.10;2.83;;;-0.30;99.90;;;;;;5079456;28;20207;-94
2023/04/04 00:44:21;;;;;;;1.80;1.50;;;-0.30;99.90;;;;;;5079592;28;20181;-93
2023/04/04 00:46:51;;;;;;;2.35;1.90;;;-0.30;99.90;;;;;;5079400;28;20186;-93
2023/04/04 00:49:20;;;;;;;3.60;1.80;;;-0.40;99.90;;;;;;5079322;28;20211;-94
2023/04/04 00:51:50;;;;;;;1.73;1.55;;;-0.40;99.90;;;;;;5079361;28;20181;-93
2023/04/04 00:54:17;;;;;;;1.88;1.70;;;-0.40;99.90;;;;;;5079044;28;20511;-92
2023/04/04 00:56:44;;;;;;;1.85;1.73;;;-0.40;99.80;;;;;;5079347;28;20181;-92
2023/04/04 00:59:17;;;;;;;3.72;1.90;;;-0.50;99.70;;;;;;5079184;28;20215;-93
2023/04/04 01:01:49;;;;;;;2.38;1.40;;;-0.50;99.70;;;;;;5079070;28;20192;-94
2023/04/04 01:04:19;;;;;;;1.88;1.60;;;-0.50;99.80;;;;;;5079246;28;20193;-93
2023/04/04 01:06:46;;;;;;;2.47;1.92;;;-0.50;99.80;;;;;;5078831;28;20211;-94
2023/04/04 01:09:21;;;;;;;2.38;2.13;;;-0.50;99.70;;;;;;5078927;28;20460;-93
2023/04/04 01:11:49;;;;;;;1.83;1.48;;;-0.60;99.70;;;;;;5078901;28;20181;-93
2023/04/04 01:14:20;;;;;;;1.90;1.40;;;-0.60;99.70;;;;;;5078915;28;20200;-94
2023/04/04 01:16:49;;;;;;;2.00;1.40;;;-0.60;99.50;;;;;;5078789;28;20194;-93
2023/04/04 01:19:24;;;;;;;2.55;2.13;;;-0.60;99.50;;;;;;5078689;28;20193;-93
2023/04/04 01:21:56;;;;;;;2.45;2.03;;;-0.60;99.60;;;;;;5078850;28;20181;-93
2023/04/04 01:24:26;;;;;;;7.82;1.73;;;-0.70;99.50;;;;;;5078887;28;20189;-94
2023/04/04 01:26:57;;;;;;;2.13;1.83;;;-0.70;99.70;;;;;;5078719;28;20195;-94
2023/04/04 01:29:26;;;;;;;2.33;2.03;;;-0.70;99.60;;;;;;5078386;28;20204;-93
2023/04/04 01:32:01;;;;;;;2.50;2.00;;;-0.70;99.60;;;;;;5078347;28;20200;-94
2023/04/04 01:34:38;;;;;;;2.13;1.50;;;-0.70;99.50;;;;;;5078378;28;20223;-94
2023/04/04 01:37:11;;;;;;;2.65;2.30;;;-0.70;99.60;;;;;;5078751;28;20177;-94
2023/04/04 01:39:43;;;;;;;3.00;1.90;;;-0.70;99.70;;;;;;5078137;28;20248;-92
2023/04/04 01:42:19;;;;;;;2.20;1.90;;;-0.70;99.70;;;;;;5078324;28;20233;-94
2023/04/04 01:44:46;;;;;;;2.17;1.90;;;-0.80;99.60;;;;;;5078393;28;20259;-94
2023/04/04 01:47:14;;;;;;;2.05;1.88;;;-0.80;99.60;;;;;;5078166;28;20212;-94
2023/04/04 01:49:44;;;;;;;2.22;1.88;;;-0.80;99.70;;;;;;5078260;28;20184;-95
2023/04/04 01:52:20;;;;;;;2.58;1.83;;;-0.80;99.70;;;;;;5078250;28;20209;-95
2023/04/04 01:54:47;;;;;;;2.33;1.70;;;-0.80;99.90;;;;;;5078083;28;20212;-94
2023/04/04 01:57:16;;;;;;;2.50;1.40;;;-0.90;99.90;;;;;;5078018;28;20193;-94
2023/04/04 01:59:46;;;;;;;2.28;1.65;;;-0.90;99.80;;;;;;5077350;28;20201;-94
2023/04/04 02:02:19;;;;;;;2.95;1.75;;;-0.90;99.90;;;;;;5077596;28;20205;-94
2023/04/04 02:04:46;;;;;;;2.35;2.15;;;-0.90;99.90;;;;;;5078056;28;20204;-95
2023/04/04 02:07:17;;;;;;;1.58;1.48;;;-0.90;99.90;;;;;;5077781;28;20193;-94
2023/04/04 02:09:45;;;;;;;2.03;1.65;;;-0.90;99.90;;;;;;5077777;28;20250;-94
2023/04/04 02:12:21;;;;;;;1.83;1.70;;;-0.90;99.90;;;;;;5077942;28;20287;-93
2023/04/04 02:14:48;;;;;;;2.58;1.90;;;-0.90;99.90;;;;;;5077624;28;20238;-92
2023/04/04 02:17:15;;;;;;;1.65;1.55;;;-0.90;99.90;;;;;;5077800;28;20189;-93
2023/04/04 02:19:48;;;;;;;2.30;1.70;;;-1.00;99.90;;;;;;5077557;28;20266;-93
2023/04/04 02:22:15;;;;;;;1.58;1.48;;;-0.90;99.90;;;;;;5077697;28;20224;-91
2023/04/04 02:24:42;;;;;;;3.83;1.60;;;-0.90;99.90;;;;;;5077760;28;20249;-93
2023/04/04 02:27:09;;;;;;;1.70;1.50;;;-1.00;99.90;;;;;;5077676;28;20203;-92
2023/04/04 02:29:38;;;;;;;2.85;1.65;;;-1.00;99.90;;;;;;5077767;28;20192;-91
2023/04/04 02:34:32;;;;;;;2.25;1.70;;;-1.10;99.90;;;;;;5079434;22;20226;-65
2023/04/04 02:36:59;;;;;;;2.67;1.80;;;-1.10;99.90;;;;;;5011065;28;20215;-66
2023/04/04 02:39:25;;;;;;;1.80;1.70;;;-1.10;99.90;;;;;;5010525;28;20206;-66
2023/04/04 02:41:52;;;;;;;2.38;2.03;;;-1.20;99.90;;;;;;5010930;28;20210;-66
2023/04/04 02:44:19;;;;;;;1.98;1.40;;;-1.20;99.90;;;;;;5010631;28;20194;-66
2023/04/04 02:46:47;;;;;;;2.15;1.92;;;-1.30;99.90;;;;;;5010488;28;20696;-66
2023/04/04 02:49:14;;;;;;;2.20;1.45;;;-1.30;99.90;;;;;;5009665;28;20579;-66
2023/04/04 02:51:41;;;;;;;1.67;1.58;;;-1.30;99.90;;;;;;5010393;28;20701;-66
2023/04/04 02:54:08;;;;;;;2.00;1.70;;;-1.40;99.90;;;;;;5010839;28;20265;-66
2023/04/04 02:56:36;;;;;;;1.70;1.60;;;-1.40;99.90;;;;;;5010301;28;20317;-66
2023/04/04 02:59:03;;;;;;;1.55;1.45;;;-1.40;99.90;;;;;;5010520;28;20230;-66
2023/04/04 03:01:31;;;;;;;1.60;1.50;;;-1.40;99.90;;;;;;5010536;28;20222;-66
2023/04/04 03:03:59;;;;;;;2.15;1.95;;;-1.40;99.90;;;;;;5010564;28;20198;-66
2023/04/04 03:06:25;;;;;;;2.78;1.45;;;-1.50;99.90;;;;;;5010352;28;20226;-66
2023/04/04 03:08:52;;;;;;;3.55;2.20;;;-1.50;99.90;;;;;;5010293;28;20210;-66
2023/04/04 03:11:20;;;;;;;3.88;2.50;;;-1.50;99.90;;;;;;5010787;28;20555;-66
2023/04/04 03:13:47;;;;;;;4.90;2.08;;;-1.50;99.90;;;;;;5010318;28;20206;-65
2023/04/04 03:16:16;;;;;;;4.22;2.10;;;-1.50;99.90;;;;;;5010461;28;20273;-66
2023/04/04 03:18:43;;;;;;;2.40;2.20;;;-1.50;99.90;;;;;;5009865;28;20194;-65
2023/04/04 03:21:11;;;;;;;1.63;1.52;;;-1.50;99.90;;;;;;5010637;28;20206;-66
2023/04/04 03:23:38;;;;;;;2.25;2.03;;;-1.60;99.90;;;;;;5010044;28;20209;-66
2023/04/04 03:26:05;;;;;;;3.83;2.38;;;-1.50;99.90;;;;;;5010260;28;20276;-66
2023/04/04 03:28:31;;;;;;;3.33;2.58;;;-1.60;99.90;;;;;;5009877;28;20231;-65
2023/04/04 03:31:03;;;;;;;2.15;1.95;;;-1.60;99.90;;;;;;5010058;28;20232;-66
2023/04/04 03:33:30;;;;;;;1.83;1.60;;;-1.60;99.90;;;;;;5009877;28;20202;-66
2023/04/04 03:35:56;;;;;;;3.60;2.00;;;-1.50;99.90;;;;;;4992936;28;20250;-66
2023/04/04 03:38:24;;;;;;;2.17;2.00;;;-1.50;99.90;;;;;;4985171;28;20702;-66
2023/04/04 03:41:00;;;;;;;3.60;1.85;;;-1.50;99.90;;;;;;4988080;28;20202;-66
2023/04/04 03:43:27;;;;;;;2.78;2.08;;;-1.50;99.90;;;;;;4985396;28;20561;-66
2023/04/04 03:45:54;;;;;;;3.05;2.10;;;-1.50;99.90;;;;;;4987544;28;20254;-66
2023/04/04 03:48:20;;;;;;;1.90;1.70;;;-1.50;99.90;;;;;;4983706;28;20200;-66
2023/04/04 03:50:47;;;;;;;2.28;2.08;;;-1.60;99.90;;;;;;4985316;28;20609;-66
2023/04/04 03:53:14;;;;;;;2.33;2.03;;;-1.60;99.90;;;;;;4980397;28;20204;-67
2023/04/04 03:55:42;;;;;;;3.47;2.05;;;-1.60;99.90;;;;;;4991953;28;20962;-66
2023/04/04 03:58:08;;;;;;;2.08;1.35;;;-1.60;99.90;;;;;;4991031;28;20199;-67
2023/04/04 04:00:35;;;;;;;3.65;2.22;;;-1.60;99.90;;;;;;4992955;28;20215;-66
2023/04/04 04:03:02;;;;;;;2.20;2.00;;;-1.60;99.90;;;;;;4992322;28;20214;-66
2023/04/04 04:05:28;;;;;;;2.58;2.10;;;-1.60;99.90;;;;;;4990998;28;20192;-66
2023/04/04 04:07:56;;;;;;;3.05;1.92;;;-1.60;99.90;;;;;;4991085;28;20693;-66
2023/04/04 04:10:22;;;;;;;2.60;2.00;;;-1.60;99.90;;;;;;4990288;28;20207;-65
2023/04/04 04:12:50;;;;;;;5.13;2.00;;;-1.60;99.90;;;;;;4995885;28;20633;-66
2023/04/04 04:15:17;;;;;;;3.03;2.45;;;-1.60;99.90;;;;;;4990726;28;20215;-67
2023/04/04 04:17:44;;;;;;;4.40;2.63;;;-1.60;99.90;;;;;;4994174;28;20685;-66
2023/04/04 04:20:11;;;;;;;3.08;2.83;;;-1.70;99.90;;;;;;4990652;28;20221;-66
2023/04/04 04:22:38;;;;;;;2.60;2.40;;;-1.70;99.90;;;;;;5001596;28;20462;-66
2023/04/04 04:25:05;;;;;;;2.58;2.05;;;-1.70;99.90;;;;;;4988479;28;20207;-66
2023/04/04 04:27:32;;;;;;;2.25;1.80;;;-1.70;99.90;;;;;;4999049;28;20222;-66
2023/04/04 04:30:00;;;;;;;2.40;1.95;;;-1.70;99.90;;;;;;5012939;28;20602;-66
2023/04/04 04:32:27;;;;;;;1.95;1.85;;;-1.70;99.90;;;;;;5012647;28;20214;-66
2023/04/04 04:34:54;;;;;;;2.67;2.22;;;-1.70;99.90;;;;;;5013006;28;20701;-66
2023/04/04 04:37:20;;;;;;;12.52;2.10;;;-1.70;99.90;;;;;;5012939;28;20214;-66
2023/04/04 04:39:47;;;;;;;1.90;1.60;;;-1.70;99.90;;;;;;5012705;28;20195;-66
2023/04/04 04:42:14;;;;;;;2.40;1.90;;;-1.70;99.90;;;;;;5013106;28;20206;-66
2023/04/04 04:44:40;;;;;;;1.65;1.55;;;-1.70;99.90;;;;;;5013032;28;20194;-66
2023/04/04 04:47:08;;;;;;;2.45;2.25;;;-1.70;99.90;;;;;;5012888;28;20214;-66
2023/04/04 04:49:35;;;;;;;2.85;2.00;;;-1.80;99.90;;;;;;5012795;28;20678;-66
2023/04/04 04:52:02;;;;;;;1.98;1.88;;;-1.80;99.90;;;;;;5012824;28;20219;-66
2023/04/04 04:54:29;;;;;;;2.20;1.95;;;-1.90;99.90;;;;;;5012918;28;20203;-66
2023/04/04 04:56:55;;;;;;;2.45;1.80;;;-1.90;99.90;;;;;;5013018;28;20230;-65
2023/04/04 04:59:22;;;;;;;1.80;1.52;;;-1.90;99.90;;;;;;5012754;28;20203;-66
2023/04/04 05:01:50;;;;;;;1.83;1.73;;;-2.00;99.90;;;;;;5012168;28;20209;-66
2023/04/04 05:04:18;;;;;;;1.90;1.80;;;-2.00;99.90;;;;;;5012912;28;20666;-67
2023/04/04 05:06:45;;;;;;;1.98;1.77;;;-2.00;99.90;;;;;;5011979;28;20313;-66
2023/04/04 05:09:11;;;;;;;5.97;2.05;;;-2.00;99.90;;;;;;5012693;28;20195;-66
2023/04/04 05:11:38;;;;;;;2.80;2.15;;;-1.90;99.90;;;;;;5012357;28;20305;-66
2023/04/04 05:14:05;;;;;;;4.45;2.30;;;-1.90;99.90;;;;;;5012396;28;20205;-66
2023/04/04 05:16:33;;;;;;;2.10;1.90;;;-1.90;99.90;;;;;;5012294;28;20226;-65
2023/04/04 05:18:59;;;;;;;1.90;1.80;;;-1.90;99.90;;;;;;5012084;28;20198;-66
2023/04/04 05:21:28;;;;;;;17.95;2.90;;;-1.90;99.90;;;;;;5012571;28;20198;-66
2023/04/04 05:23:56;;;;;;;2.42;2.22;;;-1.90;99.90;;;;;;5012427;28;20202;-66
2023/04/04 05:26:23;;;;;;;3.17;2.88;;;-1.80;99.90;;;;;;5012042;28;20662;-65
2023/04/04 05:28:50;;;;;;;1.83;1.73;;;-1.80;99.90;;;;;;5012049;28;20669;-66
2023/04/04 05:31:17;;;;;;;2.85;2.00;;;-1.80;99.90;;;;;;5012335;28;20203;-66
2023/04/04 05:33:44;;;;;;;3.40;1.90;;;-1.70;99.90;;;;;;5011863;28;20198;-66
2023/04/04 05:36:11;;;;;;;1.80;1.70;;;-1.60;99.90;;;;;;5012011;28;20246;-66
2023/04/04 05:38:39;;;;;;;2.35;2.03;;;-1.60;99.90;;;;;;5011685;28;20211;-66
2023/04/04 05:41:06;;;;;;;3.17;2.08;;;-1.60;99.90;;;;;;5012049;28;20628;-66
2023/04/04 05:43:33;;;;;;;2.17;1.98;;;-1.60;99.90;;;;;;5011972;28;20286;-66
2023/04/04 05:45:59;;;;;;;2.60;2.40;;;-1.50;99.90;;;;;;5011612;28;20221;-66
2023/04/04 05:48:26;;;;;;;1.90;1.80;;;-1.40;99.90;;;;;;5011634;28;20202;-66
2023/04/04 05:50:53;;;;;;;7.38;1.80;;;-1.40;99.90;;;;;;5011724;28;20198;-66
2023/04/04 05:53:19;;;;;;;5.00;2.20;;;-1.30;99.90;;;;;;5011925;28;20194;-65
2023/04/04 05:55:51;;;;;;;2.90;2.05;;;-1.30;99.90;;;;;;5011158;28;20219;-66
2023/04/04 05:58:18;;;;;;;2.17;2.08;;;-1.20;99.90;;;;;;5011661;28;20697;-66
2023/04/04 06:00:44;;;;;;;4.25;2.25;;;-1.10;99.90;;;;;;5011477;28;20230;-66
2023/04/04 06:03:11;;;;;;;2.38;2.17;;;-1.10;99.90;;;;;;5011615;28;20273;-67
2023/04/04 06:05:38;;;;;;;2.22;1.80;;;-1.10;99.90;;;;;;5011110;28;20225;-66
2023/04/04 06:08:05;;;;;;;3.00;2.42;;;-1.00;99.90;;;;;;5011245;28;20260;-66
2023/04/04 06:10:31;;;;;;;2.22;1.85;;;-0.90;99.90;;;;;;5011100;28;20256;-66
2023/04/04 06:13:00;;;;;;;4.47;2.45;;;-0.90;99.90;;;;;;5011230;28;20206;-66
2023/04/04 06:15:26;;;;;;;2.15;1.80;;;-0.80;99.90;;;;;;5010910;28;20228;-66
2023/04/04 06:17:54;;;;;;;2.28;2.08;;;-0.70;99.90;;;;;;5010487;28;20688;-66
2023/04/04 06:20:22;;;;;;;2.92;1.83;;;-0.70;99.90;;;;;;5011694;28;20285;-65
2023/04/04 06:22:49;;;;;;;2.40;2.20;;;-0.60;99.90;;;;;;4995579;28;20294;-66
2023/04/04 06:25:16;;;;;;;2.55;2.03;;;-0.50;99.70;;;;;;5011346;28;20198;-66
2023/04/04 06:27:42;;;;;;;6.03;2.45;;;-0.40;99.70;;;;;;5010810;28;20214;-66
2023/04/04 06:30:13;;;;;;;1.92;1.77;;;-0.40;99.70;;;;;;5011339;28;20205;-66
2023/04/04 06:32:41;;;;;;;1.60;1.50;;;-0.30;99.70;;;;;;5010785;28;20218;-66
2023/04/04 06:35:09;;;;;;;3.20;2.38;;;-0.20;99.50;;;;;;5011445;28;20222;-66
2023/04/04 06:37:35;;;;;;;2.72;1.75;;;-0.20;99.20;;;;;;5010869;28;20226;-66
2023/04/04 06:40:03;;;;;;;3.92;1.88;;;-0.10;99.00;;;;;;5010549;28;20674;-66
2023/04/04 06:42:29;;;;;;;2.13;1.67;;;0.00;99.30;;;;;;5011171;28;20195;-66
2023/04/04 06:44:56;;;;;;;2.72;2.22;;;0.10;99.30;;;;;;5011103;28;20213;-66
2023/04/04 06:47:24;;;;;;;3.67;1.80;;;0.20;99.30;;;;;;5010900;28;20280;-66
2023/04/04 06:49:51;;;;;;;2.90;2.08;;;0.30;99.60;;;;;;5010575;28;20210;-66
2023/04/04 06:52:18;;;;;;;2.50;1.90;;;0.30;98.90;;;;;;5011019;28;20206;-66
2023/04/04 06:54:44;;;;;;;2.00;1.90;;;0.40;98.60;;;;;;5010823;28;20670;-66
2023/04/04 06:57:11;;;;;;;2.30;2.10;;;0.40;98.30;;;;;;5010863;28;20225;-66
2023/04/04 06:59:38;;;;;;;1.85;1.75;;;0.50;97.80;;;;;;5010387;28;20220;-67
2023/04/04 07:02:05;;;;;;;2.75;2.03;;;0.60;97.80;;;;;;5010645;28;20202;-66
2023/04/04 07:04:34;;;;;;;1.67;1.52;;;0.60;97.90;;;;;;5010637;28;20249;-66
2023/04/04 07:07:00;;;;;;;2.35;1.80;;;0.80;98.30;;;;;;5010432;28;20211;-66
2023/04/04 07:09:27;;;;;;;4.35;2.33;;;0.80;97.40;;;;;;5010173;28;20206;-66
2023/04/04 07:11:54;;;;;;;3.60;2.55;;;0.90;97.40;;;;;;5010447;28;20649;-66
2023/04/04 07:14:23;;;;;;;2.38;2.03;;;0.90;97.00;;;;;;5010663;28;20624;-66
2023/04/04 07:16:50;;;;;;;3.10;1.60;;;0.90;97.60;;;;;;4994809;28;20223;-65
2023/04/04 07:19:17;;;;;;;3.13;1.88;;;1.00;97.10;;;;;;5010688;28;20206;-65
2023/04/04 07:21:45;;;;;;;7.18;2.10;;;1.00;96.50;;;;;;5010288;28;20198;-65
2023/04/04 07:24:12;;;;;;;3.35;1.95;;;1.00;96.60;;;;;;5010551;28;20202;-65
2023/04/04 07:26:39;;;;;;;2.10;1.67;;;1.20;97.50;;;;;;5010348;28;20222;-65
2023/04/04 07:29:06;;;;;;;2.00;1.60;;;1.30;96.50;;;;;;5011644;28;20202;-65
2023/04/04 07:31:33;;;;;;;4.43;2.35;;;1.50;96.90;;;;;;5014235;28;20264;-64
2023/04/04 07:34:00;;;;;;;2.72;2.53;;;1.60;96.30;;;;;;5014306;28;20206;-65
2023/04/04 07:36:27;;;;;;;1.70;1.58;;;1.80;96.00;;;;;;5014040;28;20214;-65
2023/04/04 07:38:55;;;;;;;2.47;2.28;;;1.80;95.10;;;;;;5013765;28;20194;-65
2023/04/04 07:41:22;;;;;;;2.05;1.85;;;2.00;95.50;;;;;;5014279;28;20245;-65
2023/04/04 07:43:48;;;;;;;2.03;1.65;;;2.20;95.40;;;;;;4998302;28;20198;-65
2023/04/04 07:46:15;;;;;;;2.10;1.90;;;2.40;95.10;;;;;;5014048;28;20210;-65
2023/04/04 07:48:42;;;;;;;4.47;2.22;;;2.60;94.30;;;;;;5013684;28;20214;-65
2023/04/04 07:51:09;;;;;;;2.13;1.92;;;3.00;94.10;;;;;;5014091;28;20202;-65
2023/04/04 07:53:36;;;;;;;2.65;2.03;;;3.30;93.40;;;;;;5013867;28;20210;-65
2023/04/04 07:56:05;;;;;;;3.72;2.00;;;3.50;93.20;;;;;;5013698;28;20761;-65
2023/04/04 07:58:33;;;;;;;1.92;1.70;;;3.60;92.70;;;;;;5013855;28;20223;-66
2023/04/04 08:01:00;;;;;;;2.10;1.95;;;3.80;92.70;;;;;;5013884;28;20233;-65
2023/04/04 08:03:26;;;;;;;3.70;2.38;;;4.30;93.70;;;;;;5013711;28;20209;-65
2023/04/04 08:05:53;;;;;;;2.30;2.13;;;4.70;93.30;;;;;;5013185;28;20218;-65
2023/04/04 08:08:20;;;;;;;3.30;2.28;;;5.00;92.30;;;;;;5013535;28;20205;-65
2023/04/04 08:10:48;;;;;;;2.40;1.90;;;5.30;92.70;;;;;;5013448;28;20274;-65
2023/04/04 08:13:16;;;;;;;4.32;1.83;;;5.40;91.60;;;;;;5013791;28;20198;-65
2023/04/04 08:15:43;;;;;;;2.50;2.30;;;5.50;92.00;;;;;;5013235;28;20281;-65
2023/04/04 08:18:10;;;;;;;2.47;2.22;;;5.70;91.30;;;;;;5013400;28;20205;-65
2023/04/04 08:20:36;;;;;;;6.15;2.03;;;6.10;91.50;;;;;;5013270;28;20289;-65
2023/04/04 08:23:03;;;;;;;2.40;2.03;;;6.30;90.70;;;;;;5014242;28;20764;-66
2023/04/04 08:25:30;;;;;;;2.17;1.80;;;6.60;90.20;;;;;;5013271;28;20563;-66
2023/04/04 08:27:56;;;;;;;4.45;2.08;;;7.20;90.90;;;;;;5013010;28;20297;-66
2023/04/04 08:30:25;;;;;;;2.03;1.83;;;7.50;90.00;;;;;;5013453;28;20305;-66
2023/04/04 08:32:51;;;;;;;2.03;1.83;;;7.80;89.20;;;;;;5169473;22;21059;-65
2023/04/04 08:35:18;;;;;;;4.15;2.13;;;8.30;89.50;;;;;;4990086;28;20214;-65
2023/04/04 08:37:45;;;;;;;2.38;2.08;;;8.70;85.30;;;;;;4975264;28;20587;-67
2023/04/04 08:40:12;;;;;;;2.45;1.80;;;8.80;85.50;;;;;;4974087;28;20211;-67
2023/04/04 08:42:42;;;;;;;3.05;2.28;;;9.30;86.00;;;;;;4975242;28;20587;-67
2023/04/04 08:45:10;;;;;;;3.15;2.78;;;9.30;84.30;;;;;;4974990;28;20208;-67
2023/04/04 08:47:39;;;;;;;2.33;1.90;;;9.70;82.80;;;;;;4974790;28;20219;-67
2023/04/04 08:50:07;;;;;;;2.60;1.98;;;10.10;82.00;;;;;;4975880;28;20207;-67
2023/04/04 08:52:35;;;;;;;4.30;1.92;;;10.20;81.20;;;;;;4976421;28;20203;-67
2023/04/04 08:55:04;;;;;;;2.30;2.10;;;10.80;82.30;;;;;;4975020;28;20207;-66
2023/04/04 08:57:32;;;;;;;2.15;1.98;;;11.40;80.70;;;;;;4974548;28;20251;-67
2023/04/04 08:59:59;;;;;;;2.90;2.20;;;12.30;78.80;;;;;;4974103;28;20200;-67
2023/04/04 09:02:29;;;;;;;2.55;2.20;;;12.90;77.20;;;;;;4974608;28;20211;-67
2023/04/04 09:05:00;;;;;;;3.67;2.42;;;13.00;76.70;;;;;;4974323;28;20290;-67
2023/04/04 09:07:28;;;;;;;2.53;2.00;;;12.10;73.50;;;;;;4974447;28;20230;-67
2023/04/04 09:09:55;;;;;;;2.70;2.30;;;11.60;76.50;;;;;;4974712;28;20204;-65
2023/04/04 09:12:23;;;;;;;3.03;2.30;;;11.60;75.70;;;;;;4975129;28;20204;-68
2023/04/04 09:14:51;;;;;;;3.22;2.22;;;11.60;75.10;;;;;;4974656;28;20207;-67
2023/04/04 09:17:18;;;;;;;3.22;2.10;;;11.10;74.30;;;;;;4974414;28;20251;-67
2023/04/04 09:19:45;;;;;;;2.67;1.95;;;11.10;73.00;;;;;;4974116;28;20195;-67
2023/04/04 09:22:16;;;;;;;2.30;1.85;;;11.70;71.10;;;;;;4974680;28;20258;-66
2023/04/04 09:24:43;;;;;;;2.65;2.45;;;11.00;73.10;;;;;;4975520;28;20242;-67
2023/04/04 09:27:11;;;;;;;4.60;2.15;;;10.60;74.40;;;;;;4974428;28;20242;-66
2023/04/04 09:29:39;;;;;;;3.42;2.08;;;11.20;76.80;;;;;;4974886;28;20208;-67
2023/04/04 09:32:08;;;;;;;4.13;2.17;;;11.80;72.00;;;;;;4974145;28;20683;-67
2023/04/04 09:34:36;;;;;;;2.90;2.70;;;12.80;73.40;;;;;;4974340;28;20235;-67
2023/04/04 09:37:04;;;;;;;1.77;1.67;;;12.20;69.70;;;;;;4974289;28;20606;-67
2023/04/04 09:39:32;;;;;;;2.40;2.00;;;11.30;74.60;;;;;;4973917;28;20239;-67
2023/04/04 09:42:00;;;;;;;2.65;2.35;;;11.50;77.00;;;;;;4974279;28;20200;-67
2023/04/04 09:44:28;;;;;;;2.95;2.15;;;12.20;76.40;;;;;;4973722;28;20580;-67
2023/04/04 09:47:32;;;;;;;2.08;1.80;;;12.90;74.90;;;;;;4973848;28;20270;-67
2023/04/04 09:49:59;;;;;;;2.40;1.90;;;12.60;75.40;;;;;;4913515;29;20281;-65
2023/04/04 09:52:26;;;;;;;2.70;1.98;;;12.30;72.50;;;;;;4913017;29;20236;-67
2023/04/04 09:54:58;;;;;;;2.53;1.77;;;11.80;72.90;;;;;;4941087;28;20290;-66
2023/04/04 09:57:27;;;;;;;3.08;2.58;;;11.50;76.20;;;;;;4973514;28;20224;-67
2023/04/04 10:00:00;;;;;;;3.00;2.22;;;12.50;74.00;;;;;;4973142;28;20200;-67
2023/04/04 10:02:27;;;;;;;2.73;2.40;;;13.70;72.50;;;;;;4973247;28;20208;-67
2023/04/04 10:04:56;;;;;;;3.43;2.27;;;14.70;68.50;;;;;;4973138;28;20471;-67
2023/04/04 10:07:23;;;;;;;2.20;1.93;;;15.60;68.40;;;;;;4972873;28;20537;-67
2023/04/04 10:09:51;;;;;;;2.67;2.27;;;15.30;65.70;;;;;;4972974;28;20470;-67
2023/04/04 10:12:22;;;;;;;2.60;2.20;;;14.50;67.70;;;;;;4973465;28;20469;-67
2023/04/04 10:14:55;;;;;;;2.73;2.20;;;13.70;71.50;;;;;;4958023;28;20591;-67
2023/04/04 10:17:23;;;;;;;2.40;2.10;;;13.70;71.80;;;;;;4973558;28;20486;-67
2023/04/04 10:19:50;;;;;;;3.20;2.08;;;13.30;68.30;;;;;;4965271;28;20819;-67
2023/04/04 10:22:21;;;;;;;2.40;2.15;;;13.00;68.90;;;;;;4973714;28;20283;-66
2023/04/04 10:24:47;;;;;;;2.33;2.13;;;13.00;66.70;;;;;;4972854;28;20282;-66
2023/04/04 10:27:15;;;;;;;2.47;1.77;;;12.80;69.60;;;;;;4972297;28;20690;-67
2023/04/04 10:29:43;;;;;;;3.25;2.38;;;13.10;69.70;;;;;;4972330;28;20208;-66
2023/04/04 10:32:20;;;;;;;2.53;2.20;;;13.40;66.30;;;;;;4972962;28;20208;-66
2023/04/04 10:35:00;;;;;;;2.70;2.17;;;14.70;69.50;;;;;;4972298;28;20470;-67
2023/04/04 10:37:31;;;;;;;3.03;1.90;;;16.40;68.70;;;;;;4971974;28;20485;-67
2023/04/04 10:40:04;;;;;;;2.60;2.33;;;17.20;66.60;;;;;;4972087;28;20467;-67
2023/04/04 10:42:38;;;;;;;4.20;2.40;;;16.60;67.30;;;;;;4972257;28;20950;-67
2023/04/04 10:45:08;;;;;;;3.00;2.53;;;16.70;65.60;;;;;;4971991;28;20494;-68
2023/04/04 10:47:36;;;;;;;2.53;2.30;;;16.30;65.10;;;;;;4971833;28;20515;-67
2023/04/04 10:50:06;;;;;;;1.70;1.60;;;16.20;66.40;;;;;;4971801;28;20462;-67
2023/04/04 10:52:33;;;;;;;2.70;2.30;;;16.30;66.10;;;;;;4972308;28;20849;-66
2023/04/04 10:55:02;;;;;;;2.03;1.83;;;17.00;61.40;;;;;;4972494;28;20467;-67
2023/04/04 10:57:30;;;;;;;2.13;1.93;;;17.70;64.20;;;;;;4971599;28;20890;-67
2023/04/04 10:59:57;;;;;;;2.67;2.30;;;18.00;62.30;;;;;;4971907;28;21120;-67
2023/04/04 11:02:53;;;;;;;3.17;2.43;;;18.60;62.70;;;;;;4971913;28;20495;-67
2023/04/04 11:05:22;;;;;;;3.10;2.30;;;18.80;61.30;;;;;;4971215;28;20498;-66
2023/04/04 11:07:54;;;;;;;2.90;2.40;;;19.00;60.40;;;;;;4972167;28;20810;-66
2023/04/04 11:10:24;;;;;;;4.97;2.03;;;19.30;60.00;;;;;;4971834;28;20455;-67
2023/04/04 11:12:55;;;;;;;2.40;2.20;;;19.20;62.00;;;;;;4972219;28;20502;-67
2023/04/04 11:15:23;;;;;;;3.27;2.03;;;19.60;60.90;;;;;;4972116;28;20462;-67
2023/04/04 11:18:01;;;;;;;2.87;2.50;;;19.90;60.60;;;;;;4964141;28;20479;-66
2023/04/04 11:20:34;;;;;;;2.47;2.10;;;20.00;59.60;;;;;;4971713;28;20467;-67
2023/04/04 11:23:09;;;;;;;2.63;2.27;;;19.90;59.80;;;;;;4971867;28;20557;-67
2023/04/04 11:25:38;;;;;;;2.13;1.90;;;20.40;57.70;;;;;;4971179;28;20857;-67
2023/04/04 11:28:24;;;;;;;3.50;2.37;;;20.70;58.20;;;;;;4971334;28;20458;-66
2023/04/04 11:31:24;;;;;;;2.47;2.27;;;21.00;57.10;;;;;;4971645;28;20470;-66
2023/04/04 11:33:57;;;;;;;2.20;2.00;;;20.60;58.10;;;;;;4956274;28;20467;-66
2023/04/04 11:36:40;;;;;;;2.13;1.93;;;20.10;58.50;;;;;;4970837;28;20483;-67
2023/04/04 11:39:08;;;;;;;3.40;2.43;;;19.80;58.80;;;;;;4970581;28;20463;-67
2023/04/04 11:41:43;;;;;;;2.83;2.20;;;20.00;59.70;;;;;;4971254;28;20970;-67
2023/04/04 11:44:11;;;;;;;2.83;2.20;;;20.30;58.60;;;;;;4971600;28;20455;-67
2023/04/04 11:46:38;;;;;;;3.40;2.43;;;20.70;56.70;;;;;;4971380;28;20870;-66
2023/04/04 11:49:06;;;;;;;2.20;2.00;;;19.70;56.40;;;;;;4971172;28;20842;-67
2023/04/04 11:51:33;;;;;;;2.40;2.20;;;19.50;59.10;;;;;;4971159;28;20470;-67
2023/04/04 11:54:00;;;;;;;3.20;2.20;;;19.70;57.80;;;;;;4971339;28;20838;-67
2023/04/04 11:56:27;;;;;;;2.50;2.30;;;19.70;57.80;;;;;;4970675;28;20569;-67
2023/04/04 11:58:54;;;;;;;2.60;2.37;;;19.10;57.80;;;;;;4971124;28;20467;-67
2023/04/04 12:01:21;;;;;;;3.07;2.47;;;19.20;59.30;;;;;;4971092;28;20463;-66
2023/04/04 12:03:48;;;;;;;2.40;2.20;;;18.90;57.50;;;;;;4971200;28;20829;-67
2023/04/04 12:06:16;;;;;;;3.77;2.50;;;18.90;57.80;;;;;;4970916;28;20483;-67
2023/04/04 12:08:44;;;;;;;2.87;2.57;;;19.40;57.70;;;;;;4970775;28;20467;-66
2023/04/04 12:11:17;;;;;;;2.30;2.07;;;19.90;58.10;;;;;;4971363;28;20973;-67
2023/04/04 12:13:44;;;;;;;3.07;2.50;;;19.70;56.70;;;;;;4971366;28;20475;-67
2023/04/04 12:16:11;;;;;;;2.10;1.90;;;19.90;57.00;;;;;;4972252;28;20537;-67
2023/04/04 12:18:38;;;;;;;2.40;2.20;;;20.30;55.80;;;;;;4974534;28;21010;-66
2023/04/04 12:21:07;;;;;;;2.40;2.20;;;20.50;55.60;;;;;;4974905;28;20846;-66
2023/04/04 12:23:35;;;;;;;2.50;1.97;;;20.00;57.00;;;;;;4974828;28;20924;-65
2023/04/04 12:26:04;;;;;;;2.23;1.90;;;19.40;56.30;;;;;;4974930;28;20488;-66
2023/04/04 12:28:33;;;;;;;3.53;2.37;;;19.30;57.30;;;;;;4974374;28;20467;-66
2023/04/04 12:31:04;;;;;;;3.37;2.70;;;19.70;57.40;;;;;;4974770;28;20469;-66
2023/04/04 12:33:32;;;;;;;2.40;2.20;;;19.10;52.60;;;;;;4974674;28;20539;-66
2023/04/04 12:35:59;;;;;;;3.33;2.37;;;18.80;55.80;;;;;;4974398;28;20534;-66
2023/04/04 12:38:26;;;;;;;2.57;2.37;;;18.20;56.30;;;;;;4974404;28;20805;-66
2023/04/04 12:40:55;;;;;;;2.40;2.20;;;18.10;58.00;;;;;;4974551;28;20493;-67
2023/04/04 12:43:22;;;;;;;2.30;2.10;;;17.60;54.40;;;;;;4974507;28;20558;-67
2023/04/04 12:45:51;;;;;;;2.47;2.27;;;17.50;57.30;;;;;;4974376;28;20832;-67
2023/04/04 12:48:20;;;;;;;2.10;1.73;;;17.80;57.70;;;;;;4974253;28;20459;-66
2023/04/04 12:50:51;;;;;;;2.10;1.90;;;18.10;55.80;;;;;;4974388;28;20463;-67
2023/04/04 12:53:20;;;;;;;2.30;2.10;;;17.80;55.80;;;;;;4974219;28;20474;-66
2023/04/04 12:55:48;;;;;;;3.67;2.40;;;18.00;56.70;;;;;;4974490;28;20857;-67
2023/04/04 12:58:17;;;;;;;2.47;2.27;;;17.90;56.00;;;;;;4975139;28;20506;-66